Time;durP1;ratioP1;P1;durP2;ratioP2;P2;SDS_P1;SDS_P2;PMS_P1;PMS_P2;Temp;Humidity;BMP_temperature;BMP_pressure;BME280_temperature;BME280_humidity;BME280_pressure;Samples;Min_cycle;Max_cycle;Signal;HPM_P1;HPM_P2
2021/01/07 00:00:07;;;;;;;15.30;13.10;;;;;;;2.46;83.97;100471.07;1768118;81;21177;-70
2021/01/07 00:02:45;;;;;;;16.67;13.38;;;;;;;2.52;83.98;100470.34;1851845;76;29434;-69
2021/01/07 00:05:13;;;;;;;14.65;11.43;;;;;;;2.49;83.99;100463.10;1808458;78;21051;-69
2021/01/07 00:07:41;;;;;;;11.78;10.40;;;;;;;2.48;83.96;100464.86;1834298;78;22037;-69
2021/01/07 00:10:12;;;;;;;11.33;10.13;;;;;;;2.48;83.94;100462.72;1838401;78;21115;-69
2021/01/07 00:12:40;;;;;;;12.13;10.68;;;;;;;2.49;83.99;100455.28;1831460;78;21060;-68
2021/01/07 00:15:09;;;;;;;17.07;12.55;;;;;;;2.49;83.95;100453.52;1821010;78;21178;-69
2021/01/07 00:17:37;;;;;;;17.50;15.70;;;;;;;2.50;83.96;100443.94;1826352;78;21167;-69
2021/01/07 00:20:12;;;;;;;18.65;16.20;;;;;;;2.50;83.97;100444.78;1840495;78;22011;-69
2021/01/07 00:22:40;;;;;;;17.77;15.55;;;;;;;2.50;83.96;100449.15;1838212;78;21115;-69
2021/01/07 00:25:10;;;;;;;23.12;18.62;;;;;;;2.49;83.94;100449.61;1810010;78;21147;-69
2021/01/07 00:27:37;;;;;;;40.17;27.65;;;;;;;2.49;83.95;100453.98;1817503;78;21150;-68
2021/01/07 00:30:07;;;;;;;30.70;21.73;;;;;;;2.47;83.98;100450.14;1822546;78;21041;-69
2021/01/07 00:32:35;;;;;;;32.30;24.82;;;;;;;2.47;84.03;100449.30;1815593;78;22160;-69
2021/01/07 00:35:04;;;;;;;31.80;25.72;;;;;;;2.46;84.02;100453.66;1808678;78;21035;-69
2021/01/07 00:37:32;;;;;;;36.55;26.85;;;;;;;2.45;84.09;100460.26;1812152;78;21135;-69
2021/01/07 00:40:00;;;;;;;41.77;28.90;;;;;;;2.42;84.12;100451.28;1810407;78;21099;-69
2021/01/07 00:42:28;;;;;;;27.32;20.62;;;;;;;2.42;84.16;100457.80;1809640;78;21127;-71
2021/01/07 00:44:56;;;;;;;22.13;17.48;;;;;;;2.40;84.22;100455.23;1815732;78;22057;-69
2021/01/07 00:47:24;;;;;;;16.80;13.83;;;;;;;2.41;84.25;100454.31;1808709;78;21064;-69
2021/01/07 00:49:51;;;;;;;19.40;14.00;;;;;;;2.41;84.27;100449.09;1830987;78;21128;-69
2021/01/07 00:52:21;;;;;;;15.72;11.22;;;;;;;2.42;84.28;100451.28;1770942;79;21147;-69
2021/01/07 00:54:49;;;;;;;18.98;12.45;;;;;;;2.43;84.31;100461.63;1808461;79;21146;-68
2021/01/07 00:57:18;;;;;;;16.60;11.80;;;;;;;2.44;84.32;100458.56;1808792;78;22067;-69
2021/01/07 00:59:46;;;;;;;18.45;15.08;;;;;;;2.43;84.35;100460.33;1808199;78;21068;-69
2021/01/07 01:02:14;;;;;;;19.70;16.42;;;;;;;2.43;84.41;100464.70;1808144;79;21068;-69
2021/01/07 01:04:42;;;;;;;25.60;17.92;;;;;;;2.43;84.43;100463.39;1808449;79;21096;-69
2021/01/07 01:07:09;;;;;;;38.78;29.07;;;;;;;2.42;84.43;100453.89;1808428;79;21087;-69
2021/01/07 01:09:37;;;;;;;20.27;15.98;;;;;;;2.42;84.43;100446.91;1808253;78;22041;-69
2021/01/07 01:12:06;;;;;;;18.60;15.05;;;;;;;2.42;84.46;100441.70;1808273;79;21056;-69
2021/01/07 01:14:34;;;;;;;22.15;16.45;;;;;;;2.42;84.49;100436.94;1807663;78;21064;-70
2021/01/07 01:17:02;;;;;;;55.67;36.55;;;;;;;2.42;84.50;100441.70;1807609;79;21103;-69
2021/01/07 01:19:31;;;;;;;54.63;40.50;;;;;;;2.43;84.52;100445.14;1801324;79;21074;-69
2021/01/07 01:21:59;;;;;;;53.28;43.38;;;;;;;2.43;84.52;100439.94;1806393;79;22056;-69
2021/01/07 01:24:26;;;;;;;28.12;22.87;;;;;;;2.44;84.54;100442.92;1807670;78;21064;-69
2021/01/07 01:26:58;;;;;;;32.42;25.43;;;;;;;2.45;84.56;100432.88;1807754;79;21060;-69
2021/01/07 01:29:26;;;;;;;40.80;31.80;;;;;;;2.45;84.55;100423.76;1807510;79;21067;-69
2021/01/07 01:31:55;;;;;;;28.65;20.85;;;;;;;2.46;84.55;100422.84;1807674;78;21064;-69
2021/01/07 01:34:23;;;;;;;40.95;27.30;;;;;;;2.48;84.55;100426.22;1807679;79;21820;-69
2021/01/07 01:36:52;;;;;;;65.32;45.83;;;;;;;2.48;84.59;100419.23;1803210;79;21573;-69
2021/01/07 01:39:19;;;;;;;50.80;29.40;;;;;;;2.48;84.59;100404.91;1807689;79;21103;-69
2021/01/07 01:41:48;;;;;;;49.77;26.45;;;;;;;2.49;84.61;100388.80;1807576;78;21632;-69
2021/01/07 01:44:17;;;;;;;44.88;23.60;;;;;;;2.50;84.62;100377.45;1807614;79;21195;-69
2021/01/07 01:46:45;;;;;;;30.88;18.20;;;;;;;2.51;84.61;100377.84;1807663;79;21880;-69
2021/01/07 01:49:12;;;;;;;26.90;16.48;;;;;;;2.53;84.63;100378.18;1807633;79;21530;-69
2021/01/07 01:51:41;;;;;;;26.35;15.75;;;;;;;2.53;84.61;100379.94;1807696;79;21106;-69
2021/01/07 01:54:09;;;;;;;20.55;12.78;;;;;;;2.53;84.60;100375.57;1807148;79;21127;-69
2021/01/07 01:56:38;;;;;;;16.20;11.33;;;;;;;2.55;84.60;100374.19;1807741;79;21176;-69
2021/01/07 01:59:06;;;;;;;16.45;11.38;;;;;;;2.55;84.57;100367.67;1807695;79;22099;-69
2021/01/07 02:01:34;;;;;;;14.28;10.85;;;;;;;2.53;84.58;100357.78;1807348;79;21302;-69
2021/01/07 02:04:03;;;;;;;12.15;9.58;;;;;;;2.53;84.59;100357.78;1807764;78;21072;-69
2021/01/07 02:06:31;;;;;;;14.60;10.30;;;;;;;2.49;84.58;100353.15;1807673;79;21165;-69
2021/01/07 02:08:59;;;;;;;14.80;10.72;;;;;;;2.46;84.58;100357.21;1778433;79;21450;-69
2021/01/07 02:11:26;;;;;;;16.80;11.90;;;;;;;2.44;84.60;100352.53;1807792;79;21940;-68
2021/01/07 02:13:54;;;;;;;14.53;11.60;;;;;;;2.41;84.62;100342.69;1729133;79;21360;-68
2021/01/07 02:16:23;;;;;;;12.35;9.70;;;;;;;2.39;84.64;100344.06;1807590;79;21052;-68
2021/01/07 02:18:57;;;;;;;14.75;11.38;;;;;;;2.38;84.66;100345.44;1807627;79;21092;-69
2021/01/07 02:21:25;;;;;;;12.07;8.88;;;;;;;2.38;84.67;100344.14;1807676;79;21056;-68
2021/01/07 02:23:55;;;;;;;13.10;9.95;;;;;;;2.38;84.71;100338.92;1797766;79;22920;-68
2021/01/07 02:26:23;;;;;;;14.80;10.35;;;;;;;2.38;84.71;100328.50;1806558;79;21059;-68
2021/01/07 02:28:51;;;;;;;13.88;10.95;;;;;;;2.37;84.71;100333.33;1807477;79;21131;-68
2021/01/07 02:31:19;;;;;;;13.38;10.20;;;;;;;2.36;84.75;100366.83;1807612;79;21135;-68
2021/01/07 02:33:47;;;;;;;15.38;12.33;;;;;;;2.34;84.75;100346.05;1807812;79;21143;-69
2021/01/07 02:36:16;;;;;;;16.17;12.68;;;;;;;2.34;84.77;100363.45;1807607;79;22044;-69
2021/01/07 02:38:44;;;;;;;14.00;10.32;;;;;;;2.30;84.78;100341.42;1807720;79;21076;-69
2021/01/07 02:41:11;;;;;;;15.00;11.20;;;;;;;2.29;84.81;100333.67;1807484;79;21155;-68
2021/01/07 02:43:40;;;;;;;17.30;13.88;;;;;;;2.28;84.81;100327.62;1807355;79;21146;-69
2021/01/07 02:46:08;;;;;;;18.02;13.60;;;;;;;2.27;84.83;100325.93;1807599;79;21549;-68
2021/01/07 02:48:36;;;;;;;16.97;12.75;;;;;;;2.28;84.86;100330.22;1807834;79;22881;-69
2021/01/07 02:51:05;;;;;;;15.63;12.13;;;;;;;2.28;84.88;100330.22;1807576;79;21064;-68
2021/01/07 02:53:33;;;;;;;17.77;12.68;;;;;;;2.27;84.88;100324.63;1807718;78;21064;-68
2021/01/07 02:56:01;;;;;;;18.02;13.18;;;;;;;2.25;84.91;100326.47;1807747;79;21150;-68
2021/01/07 02:58:32;;;;;;;18.70;13.80;;;;;;;2.22;84.92;100329.22;1806088;79;21417;-69
2021/01/07 03:00:59;;;;;;;16.05;12.20;;;;;;;2.19;84.94;100325.44;1807363;79;22129;-69
2021/01/07 03:03:27;;;;;;;16.48;12.37;;;;;;;2.19;84.98;100320.22;1800541;79;21075;-70
2021/01/07 03:05:54;;;;;;;18.15;12.88;;;;;;;2.19;84.99;100327.20;1799833;79;21046;-69
2021/01/07 03:08:23;;;;;;;17.85;13.28;;;;;;;2.19;85.00;100317.62;1799618;79;21495;-70
2021/01/07 03:10:52;;;;;;;14.65;10.88;;;;;;;2.20;85.03;100295.01;1799532;79;21063;-69
2021/01/07 03:13:20;;;;;;;15.78;11.22;;;;;;;2.18;85.03;100291.17;1799741;79;22060;-70
2021/01/07 03:15:48;;;;;;;16.45;11.70;;;;;;;2.17;85.05;100288.64;1799721;79;21169;-69
2021/01/07 03:18:16;;;;;;;14.38;10.78;;;;;;;2.17;85.07;100288.19;1800166;79;21047;-70
2021/01/07 03:20:44;;;;;;;14.95;10.78;;;;;;;2.16;85.09;100285.20;1800283;79;21070;-69
2021/01/07 03:23:11;;;;;;;15.30;11.45;;;;;;;2.16;85.09;100285.66;1800241;79;21090;-70
2021/01/07 03:25:39;;;;;;;12.60;9.25;;;;;;;2.14;85.13;100271.86;1800088;79;22029;-69
2021/01/07 03:28:07;;;;;;;15.25;10.63;;;;;;;2.14;85.17;100268.80;1799694;79;21182;-69
2021/01/07 03:30:35;;;;;;;14.60;10.98;;;;;;;2.13;85.17;100257.15;1799724;79;21139;-69
2021/01/07 03:33:02;;;;;;;16.32;12.13;;;;;;;2.14;85.18;100247.11;1799354;78;20957;-70
2021/01/07 03:35:30;;;;;;;14.03;10.98;;;;;;;2.17;85.22;100249.56;1799654;79;21103;-69
2021/01/07 03:37:58;;;;;;;16.23;11.63;;;;;;;2.17;85.21;100239.98;1799662;79;22056;-70
2021/01/07 03:40:27;;;;;;;16.50;12.07;;;;;;;2.19;85.22;100245.95;1799615;78;21074;-70
2021/01/07 03:42:54;;;;;;;15.55;12.40;;;;;;;2.22;85.20;100239.75;1799762;79;21178;-69
2021/01/07 03:45:23;;;;;;;15.60;12.33;;;;;;;2.25;85.20;100240.47;1780827;79;21048;-69
2021/01/07 03:47:50;;;;;;;11.78;8.75;;;;;;;2.25;85.19;100234.41;1756287;79;21142;-69
2021/01/07 03:50:20;;;;;;;15.18;11.65;;;;;;;2.26;85.16;100231.73;1799370;79;22097;-70
2021/01/07 03:52:47;;;;;;;13.62;10.45;;;;;;;2.22;85.11;100234.11;1799599;79;21174;-70
2021/01/07 03:55:16;;;;;;;13.68;10.18;;;;;;;2.20;85.08;100244.20;1799632;79;21478;-70
2021/01/07 03:57:43;;;;;;;12.60;9.10;;;;;;;2.17;85.04;100247.80;1799771;79;21064;-69
2021/01/07 04:00:14;;;;;;;12.25;9.20;;;;;;;2.14;85.00;100241.89;1799753;78;21138;-70
2021/01/07 04:02:41;;;;;;;12.78;10.05;;;;;;;2.11;85.00;100245.47;1799561;79;22039;-69
2021/01/07 04:05:10;;;;;;;13.38;9.70;;;;;;;2.09;85.01;100243.39;1799633;79;21111;-69
2021/01/07 04:07:38;;;;;;;12.65;9.35;;;;;;;2.07;85.05;100239.19;1784246;79;21194;-69
2021/01/07 04:10:08;;;;;;;15.23;10.40;;;;;;;2.03;85.08;100237.19;1799361;78;21139;-70
2021/01/07 04:12:36;;;;;;;15.03;9.48;;;;;;;1.99;85.14;100230.41;1799793;79;21067;-70
2021/01/07 04:15:06;;;;;;;13.40;9.43;;;;;;;1.96;85.23;100227.96;1799633;79;21957;-69
2021/01/07 04:17:33;;;;;;;16.87;10.63;;;;;;;1.94;85.30;100234.55;1799531;79;21491;-70
2021/01/07 04:20:01;;;;;;;24.32;11.10;;;;;;;1.91;85.38;100232.06;1797052;78;21534;-70
2021/01/07 04:22:30;;;;;;;17.92;9.93;;;;;;;1.90;85.45;100240.80;1771661;79;21134;-69
2021/01/07 04:24:58;;;;;;;15.48;10.48;;;;;;;1.87;85.51;100240.10;1793294;79;21152;-69
2021/01/07 04:27:26;;;;;;;21.65;10.88;;;;;;;1.85;85.58;100231.52;1798563;78;24277;-69
2021/01/07 04:29:54;;;;;;;26.50;11.93;;;;;;;1.83;85.62;100226.81;1799125;79;21064;-69
2021/01/07 04:32:22;;;;;;;19.95;9.53;;;;;;;1.84;85.71;100218.12;1799707;79;21135;-70
2021/01/07 04:34:50;;;;;;;24.27;10.32;;;;;;;1.83;85.76;100212.49;1799548;79;21887;-69
2021/01/07 04:37:18;;;;;;;26.50;9.95;;;;;;;1.82;85.80;100216.02;1799640;79;21146;-69
2021/01/07 04:39:45;;;;;;;32.35;11.38;;;;;;;1.81;85.84;100207.36;1799736;79;22062;-70
2021/01/07 04:42:13;;;;;;;25.50;9.10;;;;;;;1.80;85.89;100208.28;1796090;79;21076;-70
2021/01/07 04:44:41;;;;;;;41.37;11.65;;;;;;;1.78;85.91;100199.70;1799468;79;21146;-69
2021/01/07 04:47:10;;;;;;;23.70;10.03;;;;;;;1.77;85.97;100198.47;1792241;79;21593;-71
2021/01/07 04:49:39;;;;;;;29.10;13.18;;;;;;;1.75;86.03;100199.85;1797977;79;21146;-70
2021/01/07 04:52:07;;;;;;;30.17;12.55;;;;;;;1.74;86.08;100189.05;1784504;79;22253;-70
2021/01/07 04:54:35;;;;;;;27.25;12.00;;;;;;;1.73;86.15;100182.13;1798175;79;21054;-70
2021/01/07 04:57:04;;;;;;;26.25;11.73;;;;;;;1.73;86.20;100181.67;1799821;79;21063;-70
2021/01/07 04:59:32;;;;;;;21.17;10.03;;;;;;;1.75;86.26;100183.39;1799353;79;21131;-71
2021/01/07 05:02:02;;;;;;;22.37;10.55;;;;;;;1.76;86.33;100181.16;1799803;78;21110;-71
2021/01/07 05:04:30;;;;;;;24.02;12.33;;;;;;;1.77;86.41;100176.34;1799983;78;21902;-70
2021/01/07 05:07:00;;;;;;;22.87;12.75;;;;;;;1.78;86.46;100168.91;1799796;79;21142;-70
2021/01/07 05:09:32;;;;;;;19.80;12.37;;;;;;;1.80;86.55;100161.87;1797647;79;21135;-69
2021/01/07 05:12:02;;;;;;;16.95;11.33;;;;;;;1.81;86.58;100156.58;1797633;78;21123;-69
2021/01/07 05:14:45;;;;;;;19.70;10.80;;;;;;;1.84;86.64;100151.71;1774649;79;21491;-70
2021/01/07 05:17:16;;;;;;;17.17;10.93;;;;;;;1.88;86.68;100155.84;1800029;79;22952;-71
2021/01/07 05:19:43;;;;;;;18.57;11.35;;;;;;;1.91;86.71;100149.18;1799961;79;21314;-69
2021/01/07 05:22:12;;;;;;;17.77;10.48;;;;;;;1.92;86.76;100143.89;1799855;79;21130;-70
2021/01/07 05:24:40;;;;;;;24.35;14.13;;;;;;;1.93;86.78;100142.13;1799839;79;21127;-69
2021/01/07 05:27:12;;;;;;;22.07;13.72;;;;;;;1.95;86.80;100139.02;1789488;79;21460;-69
2021/01/07 05:29:40;;;;;;;22.62;13.85;;;;;;;1.95;86.81;100129.45;1796119;79;21746;-69
2021/01/07 05:32:10;;;;;;;20.37;11.35;;;;;;;1.97;86.83;100122.85;1792510;79;21144;-69
2021/01/07 05:34:49;;;;;;;23.15;11.40;;;;;;;1.99;86.85;100121.86;1772243;79;21305;-69
2021/01/07 05:37:18;;;;;;;21.65;12.03;;;;;;;1.98;86.86;100120.17;1770118;78;21068;-69
2021/01/07 05:39:50;;;;;;;18.42;10.95;;;;;;;1.98;86.86;100125.37;1764831;80;21072;-68
2021/01/07 05:42:18;;;;;;;26.45;14.03;;;;;;;1.99;86.88;100125.77;1796363;79;22964;-69
2021/01/07 05:44:47;;;;;;;18.30;10.82;;;;;;;2.00;86.87;100123.54;1799785;78;21079;-69
2021/01/07 05:47:29;;;;;;;22.48;11.12;;;;;;;1.99;86.88;100123.16;1795112;79;21055;-69
2021/01/07 05:49:57;;;;;;;25.92;13.10;;;;;;;1.99;86.91;100123.62;1790211;79;21084;-69
2021/01/07 05:52:29;;;;;;;20.77;11.68;;;;;;;1.99;86.90;100117.11;1774730;79;21483;-69
2021/01/07 05:55:02;;;;;;;27.55;14.00;;;;;;;1.98;86.92;100113.66;1793282;79;21882;-69
2021/01/07 05:57:31;;;;;;;21.73;11.63;;;;;;;1.99;86.93;100119.71;1796762;78;21130;-69
2021/01/07 06:00:00;;;;;;;33.02;14.65;;;;;;;1.98;86.94;100112.81;1799081;79;21142;-69
2021/01/07 06:02:28;;;;;;;29.82;13.30;;;;;;;1.96;86.96;100114.66;1758864;79;21178;-70
2021/01/07 06:04:56;;;;;;;38.33;15.25;;;;;;;1.96;86.99;100113.36;1796278;78;21044;-70
2021/01/07 06:07:25;;;;;;;30.27;12.95;;;;;;;1.94;87.01;100109.53;1734739;79;22058;-69
2021/01/07 06:09:53;;;;;;;31.17;14.78;;;;;;;1.95;87.03;100106.47;1796416;79;21075;-69
2021/01/07 06:12:20;;;;;;;42.58;16.42;;;;;;;1.94;87.06;100106.08;1770074;79;21553;-69
2021/01/07 06:14:48;;;;;;;35.83;15.40;;;;;;;1.94;87.07;100110.83;1799666;79;21162;-69
2021/01/07 06:17:16;;;;;;;37.05;16.40;;;;;;;1.96;87.12;100110.75;1795453;79;21546;-69
2021/01/07 06:19:45;;;;;;;27.35;12.00;;;;;;;1.95;87.10;100111.67;1780900;79;22060;-69
2021/01/07 06:22:16;;;;;;;47.10;15.55;;;;;;;1.95;87.14;100109.91;1799653;79;21351;-71
2021/01/07 06:24:45;;;;;;;38.67;15.20;;;;;;;1.95;87.15;100109.07;1782636;79;21064;-69
2021/01/07 06:27:25;;;;;;;27.98;12.75;;;;;;;1.95;87.18;100101.25;1792947;79;21369;-69
2021/01/07 06:30:09;;;;;;;42.80;15.35;;;;;;;1.96;87.21;100112.89;1791757;79;21154;-69
2021/01/07 06:32:38;;;;;;;44.67;15.03;;;;;;;1.97;87.25;100105.47;1766127;80;22059;-69
2021/01/07 06:35:09;;;;;;;50.30;18.73;;;;;;;1.99;87.27;100100.17;1791117;78;21490;-69
2021/01/07 06:37:42;;;;;;;62.45;18.50;;;;;;;1.99;87.29;100104.08;1797527;79;21051;-70
2021/01/07 06:40:12;;;;;;;61.88;19.45;;;;;;;2.02;87.33;100105.23;1786436;79;21193;-70
2021/01/07 06:42:42;;;;;;;59.93;22.50;;;;;;;2.04;87.36;100111.69;1780707;79;21099;-70
2021/01/07 06:45:12;;;;;;;59.23;22.25;;;;;;;2.03;87.36;100106.94;1794806;79;22086;-70
2021/01/07 06:47:42;;;;;;;44.10;20.90;;;;;;;2.06;87.40;100106.78;1793989;79;21107;-70
2021/01/07 06:50:12;;;;;;;58.98;21.52;;;;;;;2.08;87.40;100107.55;1797447;79;21118;-69
2021/01/07 06:52:41;;;;;;;56.40;20.37;;;;;;;2.10;87.43;100103.56;1807912;79;21063;-69
2021/01/07 06:55:16;;;;;;;47.27;21.17;;;;;;;2.12;87.47;100106.92;1797916;79;21123;-69
2021/01/07 06:57:48;;;;;;;47.13;22.13;;;;;;;2.14;87.49;100097.30;1792371;79;22061;-68
2021/01/07 07:00:18;;;;;;;52.30;23.67;;;;;;;2.16;87.50;100097.59;1793954;79;21066;-68
2021/01/07 07:03:04;;;;;;;57.75;25.65;;;;;;;2.19;87.55;100100.50;1799906;79;21174;-68
2021/01/07 07:05:34;;;;;;;50.95;24.70;;;;;;;2.21;87.55;100092.98;1803874;79;21162;-68
2021/01/07 07:08:12;;;;;;;47.62;21.77;;;;;;;2.24;87.58;100093.31;1813489;78;21570;-67
2021/01/07 07:10:45;;;;;;;53.68;25.23;;;;;;;2.26;87.59;100089.71;1806582;79;22126;-68
2021/01/07 07:13:20;;;;;;;54.93;25.65;;;;;;;2.30;87.62;100090.39;1809969;79;21538;-68
2021/01/07 07:15:49;;;;;;;47.08;23.10;;;;;;;2.34;87.66;100084.58;1812701;79;21475;-67
2021/01/07 07:18:37;;;;;;;50.38;24.55;;;;;;;2.37;87.67;100077.44;1802156;79;21047;-68
2021/01/07 07:21:20;;;;;;;35.52;18.70;;;;;;;2.41;87.69;100082.02;1781498;79;21083;-67
2021/01/07 07:23:48;;;;;;;44.08;22.70;;;;;;;2.46;87.70;100078.74;1784500;79;21564;-68
2021/01/07 07:26:37;;;;;;;36.75;20.27;;;;;;;2.48;87.75;100069.08;1810277;79;21084;-68
2021/01/07 07:29:12;;;;;;;58.58;27.42;;;;;;;2.50;87.75;100069.83;1803644;79;21042;-69
2021/01/07 07:31:46;;;;;;;52.60;25.17;;;;;;;2.52;87.78;100070.16;1812613;79;21115;-69
2021/01/07 07:34:14;;;;;;;;;;;;;;;2.54;87.80;100063.09;1798719;79;21103;-67
2021/01/07 07:36:42;;;;;;;41.13;21.70;;;;;;;2.56;87.82;100063.02;1809507;79;22065;-66
2021/01/07 07:39:10;;;;;;;46.33;23.67;;;;;;;2.56;87.84;100066.46;1813173;79;21139;-66
2021/01/07 07:41:45;;;;;;;48.68;24.12;;;;;;;2.57;87.84;100068.14;1813306;79;21508;-66
2021/01/07 07:44:15;;;;;;;56.45;26.00;;;;;;;2.61;87.87;100068.85;1805347;79;21114;-67
2021/01/07 07:46:43;;;;;;;44.93;23.52;;;;;;;2.62;87.90;100065.31;1813206;79;21108;-67
2021/01/07 07:49:11;;;;;;;56.00;25.85;;;;;;;2.63;87.90;100064.39;1813203;79;22048;-66
2021/01/07 07:51:40;;;;;;;52.67;24.92;;;;;;;2.66;87.91;100066.83;1813309;79;21122;-67
2021/01/07 07:54:11;;;;;;;63.10;28.20;;;;;;;2.67;87.94;100061.99;1812249;79;21597;-70
2021/01/07 07:56:39;;;;;;;58.33;26.12;;;;;;;2.68;87.96;100062.38;1806088;79;21119;-70
2021/01/07 07:59:11;;;;;;;53.75;23.60;;;;;;;2.72;87.97;100061.77;1795543;79;21134;-69
2021/01/07 08:01:42;;;;;;;66.47;28.50;;;;;;;2.75;88.00;100056.39;1801155;79;23026;-69
2021/01/07 08:04:16;;;;;;;74.67;31.35;;;;;;;2.76;88.02;100049.78;1812970;77;21186;-69
2021/01/07 08:06:45;;;;;;;72.00;33.18;;;;;;;2.79;88.05;100048.30;1813471;78;21076;-70
2021/01/07 08:09:16;;;;;;;61.48;27.95;;;;;;;2.81;88.08;100045.18;1813351;78;21402;-70
2021/01/07 08:11:54;;;;;;;66.40;27.75;;;;;;;2.86;88.09;100038.41;1813250;79;21582;-70
2021/01/07 08:14:25;;;;;;;59.30;28.55;;;;;;;2.90;88.10;100033.42;1813068;78;22059;-70
2021/01/07 08:16:58;;;;;;;71.50;33.18;;;;;;;2.94;88.13;100039.31;1808521;79;21087;-70
2021/01/07 08:19:34;;;;;;;71.85;33.02;;;;;;;2.96;88.12;100030.47;1802624;79;21088;-70
2021/01/07 08:22:02;;;;;;;79.60;33.65;;;;;;;3.00;88.16;100022.88;1812732;78;21420;-70
2021/01/07 08:24:30;;;;;;;69.62;33.13;;;;;;;3.03;88.14;100015.34;1801705;79;21562;-70
2021/01/07 08:27:16;;;;;;;75.75;33.33;;;;;;;3.07;88.16;100007.24;1798655;79;21461;-71
2021/01/07 08:29:47;;;;;;;97.80;41.37;;;;;;;3.13;88.19;100008.69;1772029;79;21187;-70
2021/01/07 08:32:18;;;;;;;106.78;40.17;;;;;;;3.16;88.19;100009.82;1804154;79;21205;-70
2021/01/07 08:34:46;;;;;;;102.62;41.70;;;;;;;3.20;88.18;100011.82;1811736;78;21519;-70
2021/01/07 08:37:17;;;;;;;89.97;36.55;;;;;;;3.21;88.19;100001.75;1813299;79;21044;-71
2021/01/07 08:39:45;;;;;;;93.27;41.18;;;;;;;3.25;88.20;99994.96;1798633;79;22052;-70
2021/01/07 08:42:14;;;;;;;79.42;35.38;;;;;;;3.27;88.20;99983.97;1793296;79;21131;-71
2021/01/07 08:44:42;;;;;;;84.62;37.58;;;;;;;3.29;88.19;99974.30;1809819;78;21122;-71
2021/01/07 08:47:24;;;;;;;72.08;33.13;;;;;;;3.33;88.20;99964.53;1811708;79;21107;-71
2021/01/07 08:50:09;;;;;;;78.52;35.20;;;;;;;3.35;88.21;99963.50;1773646;79;21059;-70
2021/01/07 08:52:54;;;;;;;78.50;35.85;;;;;;;3.37;88.21;99952.50;1812750;79;22641;-70
2021/01/07 08:55:51;;;;;;;77.85;36.65;;;;;;;3.39;88.21;99947.23;1813407;79;21127;-72
2021/01/07 08:58:24;;;;;;;98.37;42.85;;;;;;;3.43;88.22;99939.12;1812725;78;21170;-70
2021/01/07 09:00:53;;;;;;;114.15;47.45;;;;;;;3.49;88.23;99938.41;1813079;79;21095;-75
2021/01/07 09:03:21;;;;;;;136.97;50.65;;;;;;;3.52;88.26;99924.70;1801037;79;21087;-70
2021/01/07 09:05:48;;;;;;;126.85;47.00;;;;;;;3.57;88.28;99916.59;1811888;79;21578;-69
2021/01/07 09:08:19;;;;;;;76.07;31.27;;;;;;;3.61;88.29;99918.95;1813154;78;21097;-70
2021/01/07 09:10:48;;;;;;;81.05;33.35;;;;;;;3.64;88.28;99918.76;1768581;79;21159;-71
2021/01/07 09:13:22;;;;;;;58.15;26.57;;;;;;;3.64;88.27;99905.70;1808924;79;21048;-66
2021/01/07 09:15:50;;;;;;;53.63;27.13;;;;;;;3.65;88.24;99913.91;1813365;79;21436;-66
2021/01/07 09:18:19;;;;;;;39.80;21.90;;;;;;;3.59;88.20;99914.75;1813505;79;21885;-66
2021/01/07 09:20:47;;;;;;;42.50;23.73;;;;;;;3.59;88.18;99913.45;1813238;78;21060;-65
2021/01/07 09:23:16;;;;;;;44.10;24.25;;;;;;;3.53;88.12;99900.73;1805815;79;21502;-65
2021/01/07 09:25:44;;;;;;;44.38;24.20;;;;;;;3.48;88.06;99893.65;1813359;79;21078;-67
2021/01/07 09:28:12;;;;;;;51.28;24.85;;;;;;;3.46;88.06;99891.09;1810480;77;21127;-69
2021/01/07 09:30:40;;;;;;;50.63;25.50;;;;;;;3.45;88.04;99885.03;1810171;79;21882;-69
2021/01/07 09:33:08;;;;;;;48.90;26.40;;;;;;;3.43;88.00;99873.01;1810110;79;21118;-69
2021/01/07 09:35:38;;;;;;;41.77;20.05;;;;;;;3.41;87.99;99862.66;1744224;81;21077;-69
2021/01/07 09:38:06;;;;;;;30.77;16.15;;;;;;;3.41;87.94;99875.72;1733325;82;21065;-68
2021/01/07 09:40:35;;;;;;;37.20;17.23;;;;;;;3.34;87.89;99890.51;1716873;83;21488;-67
2021/01/07 09:43:02;;;;;;;36.33;20.60;;;;;;;3.25;87.84;99878.82;1733102;81;21897;-70
2021/01/07 09:45:30;;;;;;;36.88;19.45;;;;;;;3.20;87.81;99882.17;1746075;81;21504;-68
2021/01/07 09:47:59;;;;;;;35.60;17.62;;;;;;;3.17;87.78;99870.58;1746106;81;21162;-68
2021/01/07 09:50:27;;;;;;;35.88;17.48;;;;;;;3.14;87.78;99872.07;1754864;81;21061;-68
2021/01/07 09:52:54;;;;;;;29.10;16.80;;;;;;;3.08;87.74;99869.33;1726089;83;21064;-69
2021/01/07 09:55:22;;;;;;;33.50;18.05;;;;;;;3.05;87.71;99854.33;1726065;83;21900;-68
2021/01/07 09:57:52;;;;;;;27.13;17.50;;;;;;;3.02;87.72;99853.20;1725915;83;21147;-69
2021/01/07 10:00:21;;;;;;;28.00;17.17;;;;;;;3.00;87.72;99840.72;1726038;81;21152;-72
2021/01/07 10:02:48;;;;;;;27.62;15.48;;;;;;;2.98;87.72;99828.20;1728240;81;21241;-69
2021/01/07 10:05:16;;;;;;;21.87;13.55;;;;;;;2.97;87.74;99827.36;1740993;81;21073;-70
2021/01/07 10:07:44;;;;;;;21.37;13.40;;;;;;;2.96;87.73;99819.16;1742572;81;22082;-69
2021/01/07 10:10:12;;;;;;;19.57;13.78;;;;;;;2.96;87.74;99813.11;1734408;81;21141;-68
2021/01/07 10:12:40;;;;;;;27.73;17.62;;;;;;;2.95;87.74;99814.88;1761517;81;21148;-69
2021/01/07 10:15:10;;;;;;;27.80;15.48;;;;;;;2.96;87.75;99803.51;1762003;80;21153;-70
2021/01/07 10:17:38;;;;;;;26.48;13.78;;;;;;;2.99;87.75;99806.40;1762179;81;21085;-70
2021/01/07 10:20:10;;;;;;;22.17;14.43;;;;;;;3.01;87.77;99798.89;1760607;80;22777;-69
2021/01/07 10:22:38;;;;;;;25.60;15.83;;;;;;;3.00;87.77;99785.47;1750349;81;21078;-70
2021/01/07 10:25:07;;;;;;;20.80;12.85;;;;;;;3.02;87.78;99778.38;1748446;81;21108;-70
2021/01/07 10:27:35;;;;;;;26.07;15.70;;;;;;;3.05;87.80;99774.28;1758510;81;21485;-70
2021/01/07 10:30:04;;;;;;;21.55;14.07;;;;;;;3.07;87.81;99768.51;1762038;81;21102;-70
2021/01/07 10:32:32;;;;;;;25.97;16.85;;;;;;;3.12;87.84;99760.43;1759635;81;22069;-71
2021/01/07 10:35:00;;;;;;;24.77;15.68;;;;;;;3.16;87.85;99756.23;1736891;81;21105;-71
2021/01/07 10:37:29;;;;;;;23.35;16.57;;;;;;;3.23;87.88;99751.50;1753152;81;21144;-70
2021/01/07 10:39:56;;;;;;;22.77;16.15;;;;;;;3.29;87.92;99749.00;1726916;82;21087;-70
2021/01/07 10:42:25;;;;;;;21.05;14.45;;;;;;;3.36;87.91;99732.86;1721579;82;21070;-69
2021/01/07 10:44:53;;;;;;;22.17;15.98;;;;;;;3.41;87.93;99733.44;1731700;81;23067;-68
2021/01/07 10:47:21;;;;;;;25.30;15.83;;;;;;;3.46;87.93;99726.63;1757941;81;21127;-70
2021/01/07 10:49:48;;;;;;;27.48;16.93;;;;;;;3.49;87.93;99713.41;1747017;81;21169;-69
2021/01/07 10:52:45;;;;;;;22.48;16.07;;;;;;;3.48;87.91;99716.11;1761718;81;21137;-69
2021/01/07 10:55:24;;;;;;;23.87;16.25;;;;;;;3.48;87.89;99714.81;1755847;80;21131;-68
2021/01/07 10:58:30;;;;;;;23.85;16.50;;;;;;;3.50;87.90;99712.47;1746748;81;21908;-68
2021/01/07 11:01:24;;;;;;;20.85;14.05;;;;;;;3.52;87.86;99701.92;1757402;81;21374;-69
2021/01/07 11:04:19;;;;;;;20.12;14.98;;;;;;;3.55;87.86;99691.28;1715137;82;21125;-69
2021/01/07 11:06:59;;;;;;;;;;;;;;;3.57;87.85;99686.80;1762384;80;21148;-69
2021/01/07 11:09:34;;;;;;;19.17;15.10;;;;;;;3.64;87.87;99671.14;1870919;75;27781;-69
2021/01/07 11:12:07;;;;;;;20.65;14.70;;;;;;;3.65;87.87;99665.81;1791389;79;21346;-69
2021/01/07 11:14:42;;;;;;;17.50;12.78;;;;;;;3.72;87.84;99656.67;1791954;78;22137;-69
2021/01/07 11:17:24;;;;;;;17.42;13.13;;;;;;;3.74;87.81;99643.51;1824388;77;21169;-69
2021/01/07 11:19:53;;;;;;;17.70;13.53;;;;;;;3.76;87.82;99640.33;1790728;78;21056;-68
2021/01/07 11:22:26;;;;;;;16.17;12.90;;;;;;;3.76;87.79;99629.88;1799960;77;21109;-68
2021/01/07 11:24:54;;;;;;;19.65;14.40;;;;;;;3.77;87.80;99625.05;1789324;80;21457;-68
2021/01/07 11:27:23;;;;;;;21.12;14.40;;;;;;;3.75;87.75;99611.23;1823130;78;22942;-68
2021/01/07 11:29:52;;;;;;;22.90;16.25;;;;;;;3.73;87.73;99606.58;1805916;78;21075;-68
2021/01/07 11:32:21;;;;;;;19.65;14.28;;;;;;;3.69;87.72;99604.64;1792878;78;21130;-69